Time;durP1;ratioP1;P1;durP2;ratioP2;P2;SDS_P1;SDS_P2;PMS_P1;PMS_P2;Temp;Humidity;BMP_temperature;BMP_pressure;BME280_temperature;BME280_humidity;BME280_pressure;Samples;Min_cycle;Max_cycle;Signal;HPM_P1;HPM_P2
2022/03/03 00:00:44;;;;;;;41.70;28.67;;;1.10;99.90;;;;;;4978687;28;20458;-71
2022/03/03 00:03:11;;;;;;;38.13;29.93;;;1.20;99.90;;;;;;4997098;28;20841;-72
2022/03/03 00:05:39;;;;;;;38.20;29.23;;;1.10;99.90;;;;;;4998331;28;20476;-71
2022/03/03 00:08:07;;;;;;;33.53;29.83;;;1.10;99.90;;;;;;5000650;28;20983;-72
2022/03/03 00:10:34;;;;;;;38.80;30.60;;;1.10;99.90;;;;;;5001790;28;20499;-73
2022/03/03 00:13:01;;;;;;;34.47;29.63;;;1.00;99.90;;;;;;5002407;28;20885;-71
2022/03/03 00:15:27;;;;;;;51.53;30.70;;;1.00;99.90;;;;;;5006716;28;20457;-70
2022/03/03 00:17:55;;;;;;;42.17;30.97;;;1.00;99.90;;;;;;4998927;28;20462;-72
2022/03/03 00:20:22;;;;;;;38.57;29.77;;;1.00;99.90;;;;;;4998417;28;20476;-72
2022/03/03 00:22:50;;;;;;;32.70;29.27;;;1.00;99.90;;;;;;4989242;28;20505;-72
2022/03/03 00:25:17;;;;;;;33.67;30.00;;;1.00;99.90;;;;;;5000754;28;20503;-71
2022/03/03 00:27:44;;;;;;;34.10;29.60;;;1.00;99.90;;;;;;5001982;28;20829;-71
2022/03/03 00:30:12;;;;;;;33.93;30.30;;;1.00;99.90;;;;;;5000533;28;20648;-71
2022/03/03 00:32:40;;;;;;;42.67;29.53;;;1.00;99.90;;;;;;4997550;28;20543;-71
2022/03/03 00:35:08;;;;;;;34.57;30.20;;;0.90;99.90;;;;;;5001713;28;20564;-71
2022/03/03 00:37:35;;;;;;;34.10;29.77;;;0.90;99.90;;;;;;4992769;28;20467;-71
2022/03/03 00:40:05;;;;;;;34.30;30.70;;;0.80;99.90;;;;;;5002525;28;20577;-72
2022/03/03 00:42:32;;;;;;;38.17;29.23;;;0.90;99.90;;;;;;5004001;28;20500;-72
2022/03/03 00:44:59;;;;;;;33.83;30.33;;;0.90;99.90;;;;;;5000936;28;20481;-70
2022/03/03 00:47:26;;;;;;;36.40;30.07;;;0.90;99.90;;;;;;5002040;28;20468;-72
2022/03/03 00:49:53;;;;;;;32.60;29.10;;;0.90;99.90;;;;;;5002555;28;20506;-73
2022/03/03 00:52:19;;;;;;;34.53;30.60;;;0.90;99.90;;;;;;5000877;28;20475;-72
2022/03/03 00:54:47;;;;;;;36.10;29.80;;;0.90;99.90;;;;;;4998034;28;20466;-72
2022/03/03 00:57:15;;;;;;;31.60;28.40;;;0.90;99.90;;;;;;4994967;28;20520;-70
2022/03/03 00:59:42;;;;;;;33.80;30.57;;;0.90;99.90;;;;;;4997709;28;20458;-72
2022/03/03 01:02:09;;;;;;;42.60;29.33;;;0.90;99.90;;;;;;4996291;28;20469;-73
2022/03/03 01:04:36;;;;;;;44.43;32.47;;;0.80;99.90;;;;;;5002063;28;20534;-70
2022/03/03 01:07:03;;;;;;;40.33;29.80;;;0.80;99.90;;;;;;5003304;28;20478;-72
2022/03/03 01:09:29;;;;;;;37.33;30.07;;;0.70;99.90;;;;;;4996472;28;20608;-71
2022/03/03 01:11:56;;;;;;;34.30;30.60;;;0.70;99.90;;;;;;5005403;28;20990;-71
2022/03/03 01:14:25;;;;;;;34.20;30.73;;;0.70;99.90;;;;;;4997483;28;20471;-71
2022/03/03 01:16:53;;;;;;;36.37;29.50;;;0.90;99.90;;;;;;4995249;28;20925;-70
2022/03/03 01:19:20;;;;;;;35.80;30.37;;;0.80;99.90;;;;;;4995845;28;20460;-71
2022/03/03 01:21:48;;;;;;;40.43;29.63;;;0.80;99.90;;;;;;5002659;28;20480;-71
2022/03/03 01:24:15;;;;;;;49.60;30.10;;;0.70;99.90;;;;;;5004437;28;20513;-72
2022/03/03 01:26:42;;;;;;;42.00;29.73;;;0.70;99.90;;;;;;4998434;28;20500;-69
2022/03/03 01:29:08;;;;;;;34.57;30.30;;;0.70;99.90;;;;;;4996245;28;20519;-71
2022/03/03 01:31:37;;;;;;;39.77;30.87;;;0.70;99.90;;;;;;4998370;28;20479;-71
2022/03/03 01:34:06;;;;;;;48.73;30.50;;;0.60;99.90;;;;;;4993202;28;20514;-71
2022/03/03 01:36:33;;;;;;;44.10;29.37;;;0.60;99.90;;;;;;5000653;28;20488;-71
2022/03/03 01:39:00;;;;;;;34.03;30.00;;;0.50;99.90;;;;;;5001840;28;20467;-71
2022/03/03 01:41:27;;;;;;;38.00;29.87;;;0.50;99.90;;;;;;5000166;28;20473;-72
2022/03/03 01:43:54;;;;;;;32.37;28.40;;;0.50;99.90;;;;;;4998264;28;21052;-72
2022/03/03 01:46:21;;;;;;;44.67;28.90;;;0.60;99.90;;;;;;4996563;28;20477;-71
2022/03/03 01:48:49;;;;;;;34.57;28.90;;;0.60;99.90;;;;;;4996185;28;20466;-72
2022/03/03 01:51:16;;;;;;;48.67;31.30;;;0.50;99.90;;;;;;5004206;28;20804;-72
2022/03/03 01:53:43;;;;;;;36.00;28.03;;;0.40;99.90;;;;;;5004769;28;20538;-71
2022/03/03 01:56:10;;;;;;;41.20;30.57;;;0.50;99.90;;;;;;5000105;28;20473;-72
2022/03/03 01:58:38;;;;;;;37.23;29.97;;;0.40;99.90;;;;;;4999922;28;20454;-70
2022/03/03 02:01:05;;;;;;;38.83;30.43;;;0.40;99.90;;;;;;4995331;28;20474;-73
2022/03/03 02:03:32;;;;;;;36.67;28.80;;;0.30;99.90;;;;;;4993447;28;20512;-72
2022/03/03 02:06:01;;;;;;;42.57;30.47;;;0.20;99.90;;;;;;4999550;28;20483;-71
2022/03/03 02:08:28;;;;;;;49.70;29.90;;;0.10;99.90;;;;;;5006952;28;20476;-71
2022/03/03 02:10:55;;;;;;;43.87;30.87;;;0.00;99.90;;;;;;4998240;28;20468;-70
2022/03/03 02:13:23;;;;;;;50.40;29.70;;;0.00;99.90;;;;;;5001184;28;20996;-72
2022/03/03 02:15:51;;;;;;;38.50;29.40;;;0.10;99.90;;;;;;5005991;28;20899;-72
2022/03/03 02:18:18;;;;;;;33.30;29.77;;;0.10;99.90;;;;;;4996112;28;20467;-73
2022/03/03 02:20:48;;;;;;;49.63;29.60;;;0.10;99.90;;;;;;5005352;28;20469;-72
2022/03/03 02:23:15;;;;;;;34.00;29.50;;;0.10;99.90;;;;;;5000349;28;20497;-70
2022/03/03 02:25:42;;;;;;;32.50;29.00;;;0.30;99.90;;;;;;5000084;28;20853;-73
2022/03/03 02:28:09;;;;;;;35.20;29.97;;;0.30;99.90;;;;;;5001023;28;20475;-70
2022/03/03 02:30:36;;;;;;;36.30;29.53;;;0.20;99.90;;;;;;5004926;28;20488;-72
2022/03/03 02:33:03;;;;;;;32.77;28.93;;;0.10;99.90;;;;;;4995078;28;21588;-71
2022/03/03 02:35:30;;;;;;;34.80;30.70;;;0.00;99.90;;;;;;4971610;28;1059345;-70
2022/03/03 02:37:58;;;;;;;40.40;29.83;;;-0.10;99.90;;;;;;4998740;28;20203;-71
2022/03/03 02:40:25;;;;;;;33.20;29.80;;;-0.10;99.90;;;;;;5004950;28;20469;-73
2022/03/03 02:42:55;;;;;;;32.70;29.17;;;-0.20;99.90;;;;;;5000276;28;20488;-73
2022/03/03 02:45:23;;;;;;;31.50;28.30;;;-0.20;99.90;;;;;;5000505;28;20465;-71
2022/03/03 02:47:51;;;;;;;35.30;29.83;;;-0.30;99.90;;;;;;5005997;28;20475;-70
2022/03/03 02:50:20;;;;;;;33.10;29.57;;;-0.40;99.90;;;;;;5002499;28;20455;-70
2022/03/03 02:52:47;;;;;;;33.27;29.80;;;-0.50;99.90;;;;;;5001997;28;20464;-70
2022/03/03 02:55:15;;;;;;;36.10;29.50;;;-0.60;99.90;;;;;;5006515;28;20470;-71
2022/03/03 02:57:57;;;;;;;36.57;31.27;;;-0.80;99.90;;;;;;5004215;28;20467;-72
2022/03/03 03:00:26;;;;;;;32.87;28.53;;;-0.90;99.90;;;;;;5002980;28;20980;-72
2022/03/03 03:02:53;;;;;;;41.43;29.30;;;-0.90;99.90;;;;;;5000399;28;20476;-73
2022/03/03 03:05:21;;;;;;;34.33;29.57;;;-0.90;99.90;;;;;;5000658;28;20470;-72
2022/03/03 03:07:48;;;;;;;43.03;29.40;;;-0.90;99.90;;;;;;5003117;28;20562;-72
2022/03/03 03:10:17;;;;;;;34.23;29.73;;;-0.90;99.90;;;;;;5005766;28;20822;-73
2022/03/03 03:12:43;;;;;;;36.43;29.80;;;-0.80;99.90;;;;;;5001980;28;20471;-71
2022/03/03 03:15:11;;;;;;;34.60;30.20;;;-0.90;99.90;;;;;;5001070;28;20471;-73
2022/03/03 03:17:39;;;;;;;33.70;30.27;;;-0.80;99.90;;;;;;5002736;28;20465;-71
2022/03/03 03:20:07;;;;;;;35.07;29.97;;;-0.80;99.90;;;;;;4998621;28;20461;-73
2022/03/03 03:22:35;;;;;;;37.03;31.57;;;-0.80;99.90;;;;;;5005134;28;20490;-72
2022/03/03 03:25:02;;;;;;;36.90;30.57;;;-0.80;99.90;;;;;;5001484;28;20528;-74
2022/03/03 03:27:30;;;;;;;35.53;30.37;;;-0.80;99.90;;;;;;4997534;28;20474;-72
2022/03/03 03:29:57;;;;;;;35.33;31.60;;;-0.60;99.90;;;;;;5003153;28;20877;-72
2022/03/03 03:32:24;;;;;;;32.93;29.60;;;-0.60;99.90;;;;;;5003718;28;20477;-73
2022/03/03 03:34:51;;;;;;;37.77;28.23;;;-0.70;99.90;;;;;;5006008;28;20553;-70
2022/03/03 03:37:17;;;;;;;37.13;29.50;;;-0.70;99.90;;;;;;5003215;28;20498;-70
2022/03/03 03:39:44;;;;;;;40.67;31.30;;;-0.70;99.90;;;;;;5001576;28;20814;-71
2022/03/03 03:42:11;;;;;;;44.30;30.77;;;-0.70;99.90;;;;;;4998899;28;20464;-71
2022/03/03 03:44:40;;;;;;;34.60;30.90;;;-0.80;99.90;;;;;;5000878;28;20853;-72
2022/03/03 03:47:09;;;;;;;44.43;30.57;;;-0.80;99.90;;;;;;5007732;28;20556;-72
2022/03/03 03:49:36;;;;;;;38.07;29.73;;;-0.80;99.90;;;;;;5001188;28;20457;-72
2022/03/03 03:52:04;;;;;;;41.60;30.20;;;-0.70;99.90;;;;;;4997668;28;20561;-71
2022/03/03 03:54:30;;;;;;;40.87;29.73;;;-0.70;99.90;;;;;;4998841;28;20462;-71
2022/03/03 03:56:57;;;;;;;39.17;29.70;;;-0.70;99.90;;;;;;4997405;28;20459;-70
2022/03/03 03:59:24;;;;;;;47.77;30.27;;;-0.70;99.90;;;;;;5002301;28;20477;-71
2022/03/03 04:01:52;;;;;;;39.97;29.30;;;-0.70;99.90;;;;;;5004594;28;20464;-73
2022/03/03 04:04:19;;;;;;;41.20;31.37;;;-0.60;99.90;;;;;;4997389;28;20501;-71
2022/03/03 04:06:46;;;;;;;42.67;31.07;;;-0.50;99.90;;;;;;4997448;28;20476;-73
2022/03/03 04:09:13;;;;;;;48.70;28.90;;;-0.40;99.90;;;;;;4996291;28;20552;-71
2022/03/03 04:11:40;;;;;;;47.47;31.30;;;-0.40;99.90;;;;;;5003884;28;20471;-73
2022/03/03 04:14:07;;;;;;;46.77;31.73;;;-0.40;99.90;;;;;;5002141;28;20465;-71
2022/03/03 04:16:33;;;;;;;37.57;33.70;;;-0.50;99.90;;;;;;5010513;28;20467;-73
2022/03/03 04:19:02;;;;;;;38.53;30.57;;;-0.50;99.90;;;;;;4994606;28;20474;-72
2022/03/03 04:21:31;;;;;;;45.47;31.67;;;-0.50;99.90;;;;;;4999233;28;20479;-72
2022/03/03 04:23:58;;;;;;;36.33;29.40;;;-0.60;99.90;;;;;;5001065;28;21183;-72
2022/03/03 04:26:26;;;;;;;35.43;30.40;;;-0.50;99.90;;;;;;5002903;28;20463;-71
2022/03/03 04:28:53;;;;;;;34.00;29.43;;;-0.50;99.90;;;;;;5000977;28;20457;-72
2022/03/03 04:31:20;;;;;;;32.13;28.70;;;-0.60;99.90;;;;;;5001015;28;20472;-72
2022/03/03 04:33:47;;;;;;;32.73;28.80;;;-0.40;99.90;;;;;;4999661;28;20471;-73
2022/03/03 04:36:15;;;;;;;33.83;29.77;;;-0.30;99.90;;;;;;4996152;28;20520;-72
2022/03/03 04:38:42;;;;;;;30.60;27.40;;;-0.20;99.90;;;;;;5000577;28;20973;-71
2022/03/03 04:41:09;;;;;;;31.60;28.50;;;-0.20;99.90;;;;;;5003653;28;21042;-72
2022/03/03 04:43:36;;;;;;;34.00;27.33;;;-0.20;99.90;;;;;;5003400;28;20859;-72
2022/03/03 04:46:03;;;;;;;32.80;29.50;;;-0.20;99.90;;;;;;5004880;28;20551;-71
2022/03/03 04:48:30;;;;;;;32.07;28.80;;;-0.20;99.90;;;;;;4994967;28;20556;-72
2022/03/03 04:50:58;;;;;;;35.37;28.27;;;0.00;99.90;;;;;;4994763;28;20987;-72
2022/03/03 04:53:27;;;;;;;35.73;27.17;;;0.00;99.90;;;;;;4999642;28;20470;-72
2022/03/03 04:55:55;;;;;;;31.57;28.37;;;0.00;99.90;;;;;;5002719;28;20466;-71
2022/03/03 04:58:22;;;;;;;39.50;29.70;;;-0.10;99.90;;;;;;4999614;28;20472;-72
2022/03/03 05:00:49;;;;;;;32.20;29.03;;;-0.10;99.90;;;;;;4998896;28;20464;-73
2022/03/03 05:03:16;;;;;;;36.07;27.70;;;-0.20;99.90;;;;;;4969660;28;20473;-72
2022/03/03 05:05:43;;;;;;;32.83;28.20;;;-0.20;99.90;;;;;;4970259;28;21337;-71
2022/03/03 05:08:09;;;;;;;37.50;27.67;;;-0.10;99.90;;;;;;4969684;28;20470;-73
2022/03/03 05:10:38;;;;;;;30.47;26.93;;;0.00;99.90;;;;;;4969495;28;20470;-72
2022/03/03 05:13:05;;;;;;;31.27;27.97;;;0.20;99.90;;;;;;4970500;28;20469;-71
2022/03/03 05:15:32;;;;;;;33.63;28.50;;;0.20;99.90;;;;;;4971306;28;20474;-72
2022/03/03 05:17:59;;;;;;;42.60;28.40;;;0.30;99.90;;;;;;4969225;28;20473;-72
2022/03/03 05:20:26;;;;;;;29.23;25.90;;;0.30;99.90;;;;;;4969577;28;20465;-72
2022/03/03 05:22:53;;;;;;;34.73;26.77;;;0.40;99.90;;;;;;4970267;28;20473;-72
2022/03/03 05:25:20;;;;;;;37.73;27.53;;;0.40;99.90;;;;;;4970402;28;20504;-70
2022/03/03 05:27:50;;;;;;;31.57;26.90;;;0.40;99.90;;;;;;4971821;28;21421;-72
2022/03/03 05:30:17;;;;;;;33.23;27.30;;;0.40;99.90;;;;;;4970963;28;20469;-72
2022/03/03 05:32:47;;;;;;;35.17;27.30;;;0.30;99.90;;;;;;4968310;28;20690;-71
2022/03/03 05:35:14;;;;;;;31.00;28.03;;;0.20;99.90;;;;;;4970226;28;20547;-70
2022/03/03 05:37:41;;;;;;;35.10;27.07;;;0.10;99.90;;;;;;4969433;28;20515;-72
2022/03/03 05:40:08;;;;;;;36.40;28.10;;;0.10;99.90;;;;;;4970201;28;20513;-73
2022/03/03 05:42:36;;;;;;;31.47;28.20;;;0.10;99.90;;;;;;4970135;28;20884;-71
2022/03/03 05:45:05;;;;;;;34.57;28.50;;;0.00;99.90;;;;;;4970182;28;20491;-73
2022/03/03 05:47:32;;;;;;;34.60;28.00;;;-0.10;99.90;;;;;;4969084;28;21276;-71
2022/03/03 05:49:59;;;;;;;29.30;26.33;;;-0.20;99.90;;;;;;4968518;28;21372;-73
2022/03/03 05:52:26;;;;;;;38.53;27.33;;;-0.40;99.90;;;;;;4970395;28;20495;-72
2022/03/03 05:54:52;;;;;;;31.47;28.20;;;-0.60;99.90;;;;;;4969898;28;20484;-70
2022/03/03 05:57:25;;;;;;;35.90;28.80;;;-0.70;99.90;;;;;;4970866;28;20458;-72
2022/03/03 05:59:53;;;;;;;34.10;28.53;;;-0.80;99.90;;;;;;4969900;28;20874;-73
2022/03/03 06:02:22;;;;;;;37.03;29.23;;;-0.80;99.90;;;;;;4968644;28;20467;-72
2022/03/03 06:04:49;;;;;;;35.00;28.80;;;-0.80;99.90;;;;;;4968028;28;20501;-72
2022/03/03 06:07:25;;;;;;;31.50;28.33;;;-0.80;99.90;;;;;;4992970;28;20465;-72
2022/03/03 06:09:55;;;;;;;35.80;28.80;;;-0.90;99.90;;;;;;4999567;28;20464;-72
2022/03/03 06:12:27;;;;;;;38.53;27.77;;;-1.00;99.90;;;;;;4991506;28;20486;-71
2022/03/03 06:14:56;;;;;;;33.97;30.53;;;-1.10;99.90;;;;;;4971886;28;20467;-72
2022/03/03 06:17:25;;;;;;;36.13;29.60;;;-1.20;99.90;;;;;;4970847;28;21229;-71
2022/03/03 06:19:54;;;;;;;35.97;29.97;;;-1.20;99.90;;;;;;4970220;28;20504;-71
2022/03/03 06:22:21;;;;;;;37.37;28.87;;;-1.20;99.90;;;;;;4969661;28;20474;-72
2022/03/03 06:24:48;;;;;;;35.50;31.50;;;-1.20;99.90;;;;;;4970097;28;21048;-71
2022/03/03 06:27:15;;;;;;;34.03;30.27;;;-1.30;99.90;;;;;;4970333;28;20464;-72
2022/03/03 06:29:42;;;;;;;35.13;29.83;;;-1.30;99.90;;;;;;4969994;28;20475;-71
2022/03/03 06:32:09;;;;;;;33.23;29.90;;;-1.30;99.90;;;;;;4970550;28;20484;-69
2022/03/03 06:34:37;;;;;;;43.10;29.37;;;-1.40;99.90;;;;;;4971344;28;21392;-71
2022/03/03 06:37:05;;;;;;;32.50;29.13;;;-1.30;99.90;;;;;;4974348;28;21242;-72
2022/03/03 06:39:32;;;;;;;34.50;29.33;;;-1.40;99.90;;;;;;4975102;28;20452;-73
2022/03/03 06:41:59;;;;;;;42.33;29.53;;;-1.40;99.90;;;;;;4975069;28;20481;-71
2022/03/03 06:44:26;;;;;;;32.70;29.50;;;-1.40;99.90;;;;;;4975457;28;20499;-72
2022/03/03 06:46:52;;;;;;;32.97;29.67;;;-1.40;99.90;;;;;;4974787;28;20899;-72
2022/03/03 06:49:19;;;;;;;33.57;30.07;;;-1.30;99.90;;;;;;4974299;28;20845;-70
2022/03/03 06:51:49;;;;;;;39.13;28.90;;;-1.20;99.90;;;;;;4971025;28;20524;-70
2022/03/03 06:54:18;;;;;;;32.27;28.27;;;-1.10;99.90;;;;;;4972510;28;21305;-71
2022/03/03 06:56:48;;;;;;;33.07;29.67;;;-1.00;99.90;;;;;;4972927;28;21187;-72
2022/03/03 06:59:21;;;;;;;41.87;29.60;;;-0.80;99.90;;;;;;4972651;28;20972;-71
2022/03/03 07:01:49;;;;;;;34.80;28.30;;;-0.70;99.90;;;;;;4972690;28;20470;-72
2022/03/03 07:04:18;;;;;;;38.23;30.70;;;-0.50;99.90;;;;;;4972416;28;20497;-71
2022/03/03 07:06:46;;;;;;;39.70;29.90;;;-0.40;99.90;;;;;;4972851;28;20972;-70
2022/03/03 07:09:16;;;;;;;31.73;28.43;;;-0.40;99.90;;;;;;4971999;28;20969;-73
2022/03/03 07:11:44;;;;;;;31.43;27.53;;;-0.30;99.90;;;;;;4973457;28;20488;-72
2022/03/03 07:14:12;;;;;;;34.93;29.40;;;-0.20;99.90;;;;;;4972457;28;20481;-70
2022/03/03 07:16:42;;;;;;;31.10;27.70;;;-0.20;99.90;;;;;;4973512;28;20465;-71
2022/03/03 07:19:25;;;;;;;32.33;28.67;;;-0.10;99.90;;;;;;4972545;28;20464;-70
2022/03/03 07:22:08;;;;;;;33.87;28.10;;;-0.10;99.90;;;;;;4971647;28;21030;-71
2022/03/03 07:24:43;;;;;;;33.23;29.03;;;0.10;99.90;;;;;;4973105;28;20496;-71
2022/03/03 07:27:18;;;;;;;32.87;29.37;;;0.30;99.90;;;;;;4972518;28;20464;-71
2022/03/03 07:29:48;;;;;;;41.37;28.93;;;0.30;99.90;;;;;;4967553;28;20880;-71
2022/03/03 07:32:19;;;;;;;37.80;27.70;;;0.40;99.90;;;;;;4971467;28;20814;-71
2022/03/03 07:34:55;;;;;;;31.27;25.97;;;0.40;99.90;;;;;;4972068;28;20463;-72
2022/03/03 07:37:28;;;;;;;34.37;27.70;;;0.50;99.90;;;;;;4969958;28;21285;-71
2022/03/03 07:40:03;;;;;;;29.40;26.33;;;0.50;99.90;;;;;;4967135;28;20454;-71
2022/03/03 07:42:30;;;;;;;35.00;29.93;;;0.70;99.90;;;;;;4969979;28;20469;-72
2022/03/03 07:44:58;;;;;;;33.17;29.53;;;0.80;99.90;;;;;;4971732;28;20504;-72
2022/03/03 07:47:27;;;;;;;29.90;26.83;;;1.00;99.90;;;;;;4969665;28;20490;-72
2022/03/03 07:49:56;;;;;;;30.57;27.10;;;1.00;99.90;;;;;;4971586;28;20477;-70
2022/03/03 07:52:24;;;;;;;31.57;27.53;;;1.20;99.90;;;;;;4970085;28;20474;-71
2022/03/03 07:54:50;;;;;;;32.77;27.70;;;1.30;99.90;;;;;;4972370;28;22354;-72
2022/03/03 07:57:22;;;;;;;37.27;28.67;;;1.50;99.90;;;;;;4971858;28;20467;-72
2022/03/03 07:59:50;;;;;;;30.13;27.17;;;1.60;99.90;;;;;;4969608;28;20465;-72
2022/03/03 08:02:22;;;;;;;40.40;29.50;;;1.70;99.90;;;;;;4971466;28;20827;-71
2022/03/03 08:04:51;;;;;;;31.43;28.33;;;1.90;99.90;;;;;;4981880;28;20482;-72
2022/03/03 08:07:19;;;;;;;32.93;28.10;;;2.00;99.90;;;;;;4995657;28;20466;-72
2022/03/03 08:09:48;;;;;;;35.97;28.10;;;2.10;99.90;;;;;;4981190;28;20471;-73
2022/03/03 08:12:16;;;;;;;32.43;29.23;;;2.20;99.90;;;;;;4966087;28;20478;-73
2022/03/03 08:14:46;;;;;;;35.47;30.30;;;2.40;99.90;;;;;;4964228;28;21792;-73
2022/03/03 08:17:15;;;;;;;33.03;29.40;;;2.50;99.90;;;;;;4964266;28;21114;-73
2022/03/03 08:19:43;;;;;;;32.60;28.70;;;2.70;99.90;;;;;;4965838;28;20475;-72
2022/03/03 08:22:12;;;;;;;31.50;28.27;;;2.90;99.90;;;;;;4966105;28;21280;-72
2022/03/03 08:24:43;;;;;;;37.87;27.90;;;3.00;99.90;;;;;;4965517;28;20490;-71
2022/03/03 08:27:11;;;;;;;31.23;28.20;;;3.20;99.90;;;;;;4966174;28;20779;-72
2022/03/03 08:29:38;;;;;;;33.60;29.43;;;3.30;99.90;;;;;;4966164;28;20489;-72
2022/03/03 08:32:11;;;;;;;33.03;28.77;;;3.50;99.90;;;;;;4966319;28;21492;-72
2022/03/03 08:34:43;;;;;;;31.17;27.87;;;3.60;99.90;;;;;;4966013;28;20494;-72
2022/03/03 08:37:18;;;;;;;31.60;28.50;;;3.80;99.90;;;;;;4964620;28;21243;-73
2022/03/03 08:39:47;;;;;;;32.43;28.00;;;3.90;99.90;;;;;;4965156;28;20468;-72
2022/03/03 08:42:15;;;;;;;31.80;26.87;;;4.10;99.90;;;;;;4964844;28;20949;-71
2022/03/03 08:44:44;;;;;;;32.03;28.87;;;4.20;99.90;;;;;;4959618;28;21295;-72
2022/03/03 08:47:15;;;;;;;33.80;30.17;;;4.20;99.90;;;;;;4966530;28;21150;-73
2022/03/03 08:49:45;;;;;;;37.60;28.63;;;4.40;99.90;;;;;;4966256;28;20463;-72
2022/03/03 08:52:12;;;;;;;32.97;29.00;;;4.60;99.90;;;;;;4965401;28;21290;-72
2022/03/03 08:54:39;;;;;;;32.47;29.23;;;4.80;99.90;;;;;;4966652;28;20958;-74
2022/03/03 08:57:06;;;;;;;32.03;28.83;;;4.90;99.90;;;;;;4965663;28;20473;-74
2022/03/03 08:59:33;;;;;;;30.93;28.00;;;5.00;99.90;;;;;;4964759;28;20904;-72
2022/03/03 09:02:00;;;;;;;30.90;27.80;;;5.10;99.90;;;;;;4964928;28;20827;-73
2022/03/03 09:04:28;;;;;;;34.87;28.83;;;5.20;99.90;;;;;;4966181;28;20475;-72
2022/03/03 09:06:55;;;;;;;30.33;27.67;;;5.40;99.90;;;;;;4965688;28;20609;-74
2022/03/03 09:09:22;;;;;;;31.20;28.13;;;5.50;99.90;;;;;;4965603;28;20938;-73
2022/03/03 09:11:48;;;;;;;40.20;28.73;;;5.50;99.90;;;;;;4965094;28;21233;-72
2022/03/03 09:14:15;;;;;;;33.50;30.13;;;5.60;99.90;;;;;;4965690;28;21225;-72
2022/03/03 09:16:42;;;;;;;30.40;27.80;;;5.70;99.90;;;;;;4966079;28;20470;-72
2022/03/03 09:19:09;;;;;;;36.13;27.53;;;5.70;99.90;;;;;;4965097;28;20470;-73
2022/03/03 09:21:37;;;;;;;30.60;27.87;;;5.70;99.90;;;;;;4964678;28;20846;-73
2022/03/03 09:24:04;;;;;;;32.40;29.10;;;5.90;99.90;;;;;;4965794;28;20482;-73
2022/03/03 09:26:31;;;;;;;31.67;28.23;;;6.00;99.90;;;;;;4965461;28;21312;-72
2022/03/03 09:28:58;;;;;;;34.27;31.07;;;6.10;99.90;;;;;;4963842;28;20978;-73
2022/03/03 09:31:25;;;;;;;31.30;28.03;;;6.20;99.90;;;;;;4964583;28;20463;-72
2022/03/03 09:33:52;;;;;;;32.03;28.80;;;6.40;99.90;;;;;;4965186;28;20469;-74
2022/03/03 09:36:19;;;;;;;31.60;28.50;;;6.60;99.90;;;;;;4965110;28;20498;-73
2022/03/03 09:38:47;;;;;;;32.50;29.50;;;6.80;99.90;;;;;;4965046;28;20462;-72
2022/03/03 09:41:14;;;;;;;32.67;29.37;;;6.90;99.90;;;;;;4965113;28;20470;-72
2022/03/03 09:43:41;;;;;;;32.50;29.20;;;6.90;99.90;;;;;;4965775;28;20458;-73
2022/03/03 09:46:08;;;;;;;31.80;28.80;;;6.90;99.90;;;;;;4965014;28;20499;-72
2022/03/03 09:48:35;;;;;;;32.53;29.13;;;7.10;99.90;;;;;;4964143;28;20458;-73
2022/03/03 09:51:02;;;;;;;31.87;28.67;;;7.30;99.90;;;;;;4964358;28;20481;-74
2022/03/03 09:53:32;;;;;;;31.70;28.60;;;7.20;99.90;;;;;;4963456;28;20466;-74
2022/03/03 09:56:01;;;;;;;32.67;29.40;;;7.20;99.90;;;;;;4963380;28;20451;-73
2022/03/03 09:58:27;;;;;;;31.73;28.77;;;7.40;99.90;;;;;;4963908;28;20484;-73
2022/03/03 10:00:58;;;;;;;31.73;28.80;;;7.60;99.90;;;;;;4963996;28;20462;-74
2022/03/03 10:03:33;;;;;;;31.70;28.67;;;7.70;99.90;;;;;;4963682;28;20486;-74
2022/03/03 10:06:00;;;;;;;31.00;27.93;;;7.80;99.90;;;;;;4964141;28;21077;-73
2022/03/03 10:08:29;;;;;;;31.73;28.67;;;7.80;99.90;;;;;;4964620;28;20466;-73
2022/03/03 10:10:58;;;;;;;31.70;28.63;;;7.70;99.90;;;;;;4967519;28;20462;-73
2022/03/03 10:13:27;;;;;;;32.50;29.60;;;7.70;99.90;;;;;;4968183;28;20572;-73
2022/03/03 10:15:57;;;;;;;32.23;29.30;;;8.00;99.90;;;;;;4968419;28;21022;-75
2022/03/03 10:18:25;;;;;;;32.37;28.63;;;8.40;99.90;;;;;;4968799;28;20481;-73
2022/03/03 10:20:55;;;;;;;32.40;29.20;;;9.30;99.90;;;;;;4968609;28;20992;-74
2022/03/03 10:23:26;;;;;;;38.60;28.57;;;10.20;98.50;;;;;;4968673;28;20583;-74
2022/03/03 10:25:55;;;;;;;31.10;28.20;;;10.80;96.10;;;;;;4969389;28;20494;-73
2022/03/03 10:28:24;;;;;;;31.80;28.80;;;11.10;94.10;;;;;;4967670;28;21000;-74
2022/03/03 10:31:01;;;;;;;32.07;29.07;;;11.50;94.20;;;;;;4969327;28;20466;-73
2022/03/03 10:33:30;;;;;;;33.63;28.07;;;11.30;92.80;;;;;;4968486;28;20880;-73
2022/03/03 10:36:06;;;;;;;31.40;28.40;;;11.90;92.20;;;;;;4968385;28;20490;-74
2022/03/03 10:38:35;;;;;;;31.93;29.03;;;12.50;90.70;;;;;;4967710;28;20464;-74
2022/03/03 10:41:03;;;;;;;31.40;28.50;;;13.20;90.50;;;;;;4967512;28;21024;-75
2022/03/03 10:43:47;;;;;;;30.87;28.27;;;14.30;86.60;;;;;;4966569;28;20813;-75
2022/03/03 10:46:15;;;;;;;31.30;28.23;;;14.80;81.30;;;;;;4966860;28;20505;-74
2022/03/03 10:48:42;;;;;;;30.63;27.90;;;15.40;79.90;;;;;;4966826;28;20469;-74
2022/03/03 10:51:11;;;;;;;28.97;26.53;;;15.80;76.50;;;;;;4966346;28;20477;-75
2022/03/03 10:53:38;;;;;;;30.10;27.53;;;15.90;69.70;;;;;;4966840;28;20463;-74
2022/03/03 10:56:06;;;;;;;32.13;29.03;;;15.40;66.90;;;;;;4967673;28;20495;-73
2022/03/03 10:58:54;;;;;;;29.93;27.23;;;15.40;70.70;;;;;;4977062;28;20471;-72
2022/03/03 11:01:25;;;;;;;31.60;28.80;;;15.50;65.50;;;;;;4994722;28;20463;-73
2022/03/03 11:03:53;;;;;;;29.83;27.33;;;15.30;65.40;;;;;;4989217;28;20495;-72
2022/03/03 11:06:22;;;;;;;31.87;29.07;;;15.40;65.10;;;;;;4967621;28;20621;-73
2022/03/03 11:08:51;;;;;;;31.27;28.40;;;15.60;62.70;;;;;;4967415;28;21028;-72
2022/03/03 11:11:18;;;;;;;32.33;28.97;;;16.10;60.90;;;;;;4967851;28;20477;-72
2022/03/03 11:13:47;;;;;;;29.00;26.40;;;16.10;60.20;;;;;;4968010;28;21161;-74
2022/03/03 11:16:15;;;;;;;32.47;28.10;;;16.60;60.90;;;;;;4967799;28;20481;-72
2022/03/03 11:18:43;;;;;;;31.80;28.87;;;16.70;58.80;;;;;;4971722;28;20466;-72
2022/03/03 11:21:12;;;;;;;29.87;27.23;;;17.50;58.90;;;;;;4967355;28;22364;-72
2022/03/03 11:23:44;;;;;;;32.07;28.97;;;17.00;58.10;;;;;;4967563;28;20513;-72
2022/03/03 11:26:21;;;;;;;30.40;26.70;;;17.90;58.40;;;;;;4970535;28;20861;-72
2022/03/03 11:28:58;;;;;;;30.33;27.63;;;18.10;56.50;;;;;;4967057;28;20466;-73
2022/03/03 11:31:30;;;;;;;33.90;28.00;;;18.10;55.60;;;;;;4966253;28;20502;-73
2022/03/03 11:34:21;;;;;;;30.73;28.10;;;17.60;54.90;;;;;;4966566;28;20458;-74
2022/03/03 11:36:49;;;;;;;30.47;27.67;;;18.10;54.30;;;;;;4966301;28;20494;-73
2022/03/03 11:39:37;;;;;;;30.07;27.33;;;18.30;53.60;;;;;;4965806;28;20466;-73
2022/03/03 11:42:25;;;;;;;32.60;29.10;;;18.70;53.20;;;;;;4952798;28;20817;-73
2022/03/03 11:44:55;;;;;;;30.57;27.90;;;18.10;53.00;;;;;;4967262;28;20974;-72
2022/03/03 11:47:25;;;;;;;31.70;28.67;;;18.40;53.20;;;;;;4967130;28;21045;-73
2022/03/03 11:50:16;;;;;;;30.83;28.13;;;18.70;54.00;;;;;;4966262;28;20467;-72
2022/03/03 11:52:44;;;;;;;30.90;28.33;;;19.40;52.80;;;;;;4967501;28;20504;-73
2022/03/03 11:55:34;;;;;;;32.50;29.17;;;19.30;51.90;;;;;;4965506;28;20544;-72
2022/03/03 11:58:04;;;;;;;31.00;28.40;;;19.50;52.40;;;;;;4967196;28;20470;-73
2022/03/03 12:00:32;;;;;;;29.77;26.80;;;19.70;52.30;;;;;;4961371;28;20485;-72
2022/03/03 12:03:04;;;;;;;31.57;28.57;;;19.90;51.80;;;;;;4968342;28;21110;-73
2022/03/03 12:05:41;;;;;;;30.57;27.90;;;20.10;50.10;;;;;;4968761;28;20466;-71
2022/03/03 12:08:32;;;;;;;29.33;26.90;;;19.10;47.70;;;;;;4968222;28;20462;-72
2022/03/03 12:11:05;;;;;;;31.30;28.53;;;17.90;47.10;;;;;;4966925;28;20465;-71
2022/03/03 12:13:34;;;;;;;30.27;27.73;;;17.60;49.80;;;;;;4971992;28;20498;-72
2022/03/03 12:16:25;;;;;;;29.57;27.07;;;18.30;47.60;;;;;;4997984;28;20463;-73
2022/03/03 12:19:09;;;;;;;30.13;27.23;;;18.40;46.90;;;;;;4991280;28;20469;-73
2022/03/03 12:21:40;;;;;;;30.40;27.63;;;19.20;49.10;;;;;;4964223;28;20474;-73
2022/03/03 12:24:33;;;;;;;29.50;26.90;;;19.60;48.50;;;;;;4964539;28;20847;-73
2022/03/03 12:27:15;;;;;;;29.57;26.77;;;20.00;46.30;;;;;;4964956;28;20494;-73
2022/03/03 12:29:52;;;;;;;29.23;26.80;;;19.90;45.20;;;;;;4964957;28;20473;-73
2022/03/03 12:32:34;;;;;;;30.50;27.97;;;20.30;46.10;;;;;;4966051;28;20468;-73
2022/03/03 12:35:04;;;;;;;28.80;26.50;;;19.90;43.10;;;;;;4965362;28;20477;-73
2022/03/03 12:37:33;;;;;;;28.63;25.77;;;19.80;44.20;;;;;;4966912;28;20976;-72
2022/03/03 12:40:04;;;;;;;28.70;26.13;;;20.00;44.00;;;;;;4966785;28;20492;-74